Terminal Aerodrome Forecast
Issued by NWS Springfield, MO

Home | Current Version | Previous Version | Text Only | Print | Product List | Glossary On
Versions: 1 2 3 4 5 6 7 8 9 10 11 12 13 14 15 16 17 18 19 20 21 22 23
000
FTUS43 KSGF 171537 AAA
TAFSGF
TAF AMD
KSGF 171537Z 1716/1812 03012KT P6SM -SHRA BKN010 BKN040 OVC120
     FM171800 20004KT 6SM TSRA SCT010 BKN035CB
     FM172200 10005KT P6SM BKN140 PROB30 1808/1810 P6SM -TSRA
      BKN050CB=

USA.gov is the U.S. government's official web portal to all federal, state and local government web resources and services.